Time;durP1;ratioP1;P1;durP2;ratioP2;P2;SDS_P1;SDS_P2;PMS_P1;PMS_P2;Temp;Humidity;BMP_temperature;BMP_pressure;BME280_temperature;BME280_humidity;BME280_pressure;Samples;Min_cycle;Max_cycle;Signal;HPM_P1;HPM_P2
2022/07/30 00:00:07;;;;;;;11.38;2.75;;;;;;;;;;5103364;28;20020;-65
2022/07/30 00:02:34;;;;;;;10.07;2.30;;;;;;;;;;5104413;28;20109;-66
2022/07/30 00:05:00;;;;;;;13.52;2.90;;;;;;;;;;5103805;28;20024;-66
2022/07/30 00:07:30;;;;;;;10.88;2.50;;;;;;;;;;5090793;28;20043;-67
2022/07/30 00:09:56;;;;;;;10.70;2.83;;;;;;;;;;5091320;28;20024;-66
2022/07/30 00:12:26;;;;;;;15.40;2.85;;;39.10;48.40;;;;;;5089956;28;20024;-65
2022/07/30 00:14:52;;;;;;;17.77;3.50;;;;;;;;;;5090007;28;20080;-65
2022/07/30 00:17:19;;;;;;;14.15;3.20;;;39.40;70.80;;;;;;5089979;28;20495;-66
2022/07/30 00:19:46;;;;;;;13.38;3.03;;;;;;;;;;5091669;28;20433;-67
2022/07/30 00:22:12;;;;;;;11.65;2.42;;;39.80;62.20;;;;;;5089115;28;20020;-66
2022/07/30 00:24:39;;;;;;;14.38;3.00;;;39.10;48.50;;;;;;5090171;28;20071;-67
2022/07/30 00:27:05;;;;;;;11.77;3.67;;;;;;;;;;5089798;28;20050;-65
2022/07/30 00:29:32;;;;;;;12.05;2.88;;;38.80;63.90;;;;;;5088995;28;20023;-65
2022/07/30 00:31:58;;;;;;;14.50;3.33;;;;;;;;;;5088199;28;20091;-67
2022/07/30 00:34:25;;;;;;;12.70;2.90;;;39.00;51.10;;;;;;5087018;28;20059;-66
2022/07/30 00:36:51;;;;;;;11.02;3.22;;;;;;;;;;5086908;28;20161;-66
2022/07/30 00:39:18;;;;;;;14.32;3.28;;;;;;;;;;5088967;28;20020;-68
2022/07/30 00:41:59;;;;;;;12.35;2.80;;;38.70;49.70;;;;;;5087948;28;20134;-66
2022/07/30 00:44:26;;;;;;;15.27;2.72;;;38.70;52.60;;;;;;5071701;28;20651;-67
2022/07/30 00:46:53;;;;;;;10.55;3.15;;;38.70;47.40;;;;;;5088298;28;20126;-67
2022/07/30 00:49:21;;;;;;;10.90;2.45;;;38.70;47.10;;;;;;5103903;28;20076;-65
2022/07/30 00:51:48;;;;;;;12.82;2.88;;;38.40;81.60;;;;;;5087338;28;20073;-65
2022/07/30 00:54:14;;;;;;;13.32;2.72;;;38.80;66.70;;;;;;5086785;28;20089;-66
2022/07/30 00:56:41;;;;;;;9.55;2.33;;;;;;;;;;5088722;28;20077;-66
2022/07/30 00:59:08;;;;;;;8.85;2.47;;;38.90;45.60;;;;;;5088623;28;20035;-67
2022/07/30 01:01:35;;;;;;;12.10;2.15;;;38.90;65.70;;;;;;5090835;28;20028;-65
2022/07/30 01:04:02;;;;;;;11.88;3.05;;;;;;;;;;5088468;28;20056;-66
2022/07/30 01:06:28;;;;;;;14.18;2.65;;;38.90;80.30;;;;;;5072345;28;20031;-64
2022/07/30 01:08:55;;;;;;;10.05;2.53;;;;;;;;;;5089422;28;20012;-65
2022/07/30 01:11:27;;;;;;;8.93;2.40;;;38.60;61.00;;;;;;5088470;28;20020;-64
2022/07/30 01:13:54;;;;;;;12.70;2.38;;;;;;;;;;5088560;28;20032;-64
2022/07/30 01:16:21;;;;;;;9.70;2.78;;;38.70;45.30;;;;;;5088736;28;20032;-67
2022/07/30 01:21:39;;;;;;;9.02;2.80;;;38.90;46.90;;;;;;5074652;28;20032;-67
2022/07/30 01:24:20;;;;;;;15.30;8.80;;;38.40;47.30;;;;;;5092512;28;20435;-65
2022/07/30 01:26:48;;;;;;;9.50;2.33;;;38.10;50.20;;;;;;5086716;28;20032;-65
2022/07/30 01:29:16;;;;;;;11.50;2.53;;;38.10;56.30;;;;;;5071469;28;20020;-67
2022/07/30 01:31:45;;;;;;;8.73;2.63;;;38.40;51.10;;;;;;5088922;28;20133;-65
2022/07/30 01:34:13;;;;;;;14.32;2.75;;;38.10;47.20;;;;;;5087349;28;20069;-65
2022/07/30 01:36:44;;;;;;;10.18;2.55;;;38.00;60.40;;;;;;5085962;28;20016;-65
2022/07/30 01:39:11;;;;;;;11.48;2.22;;;;;;;;;;5086747;28;20020;-64
2022/07/30 01:41:39;;;;;;;11.23;2.92;;;38.40;54.80;;;;;;5087920;28;20492;-65
2022/07/30 01:44:07;;;;;;;12.70;2.78;;;37.80;51.30;;;;;;5087029;28;20366;-64
2022/07/30 01:46:35;;;;;;;16.60;2.70;;;38.00;52.40;;;;;;5070974;28;20020;-64
2022/07/30 01:49:02;;;;;;;10.50;2.38;;;37.40;49.00;;;;;;5089399;28;20141;-67
2022/07/30 01:51:29;;;;;;;13.70;2.42;;;37.40;62.40;;;;;;5071003;28;20030;-67
2022/07/30 01:53:57;;;;;;;12.98;2.65;;;37.50;47.50;;;;;;5071416;28;20152;-66
2022/07/30 01:56:24;;;;;;;10.70;3.10;;;37.50;50.70;;;;;;5088750;28;20508;-68
2022/07/30 01:58:52;;;;;;;9.27;2.50;;;;;;;;;;5070855;28;20035;-67
2022/07/30 02:01:18;;;;;;;7.95;2.10;;;37.90;83.20;;;;;;5088180;28;20028;-67
2022/07/30 02:03:45;;;;;;;22.30;2.42;;;37.30;44.10;;;;;;5088943;28;20054;-67
2022/07/30 02:06:27;;;;;;;8.98;2.40;;;36.90;79.50;;;;;;5087492;28;20647;-67
2022/07/30 02:09:04;;;;;;;7.03;1.88;;;37.20;50.10;;;;;;5072207;28;20028;-67
2022/07/30 02:14:33;;;;;;;10.43;2.35;;;37.10;42.70;;;;;;5087114;28;20394;-67
2022/07/30 02:17:00;;;;;;;;;;;37.00;42.20;;;;;;5086556;28;20024;-68
2022/07/30 02:19:35;;;;;;;14.20;3.30;;;37.20;42.10;;;;;;5087478;28;19908;-67
2022/07/30 02:22:08;;;;;;;14.68;2.95;;;36.50;74.80;;;;;;5071457;28;20020;-68
2022/07/30 02:24:37;;;;;;;11.90;2.45;;;36.70;43.90;;;;;;5087538;28;20016;-67
2022/07/30 02:27:08;;;;;;;11.55;2.25;;;36.80;38.80;;;;;;5070842;28;20043;-65
2022/07/30 02:29:37;;;;;;;12.70;2.22;;;36.60;68.20;;;;;;5086337;28;20030;-67
2022/07/30 02:32:11;;;;;;;7.57;2.10;;;36.50;68.20;;;;;;5070942;28;20520;-69
2022/07/30 02:34:40;;;;;;;15.48;3.03;;;36.80;58.40;;;;;;5085598;28;20027;-67
2022/07/30 02:37:10;;;;;;;19.42;2.78;;;37.00;64.60;;;;;;5084345;28;20028;-66
2022/07/30 02:39:38;;;;;;;22.38;2.60;;;36.10;37.90;;;;;;5071534;28;20024;-66
2022/07/30 02:42:06;;;;;;;14.70;2.80;;;36.60;45.10;;;;;;5088091;28;20020;-67
2022/07/30 02:44:34;;;;;;;13.10;3.05;;;36.80;73.00;;;;;;5086959;28;20068;-66
2022/07/30 02:47:03;;;;;;;11.52;2.42;;;36.40;38.50;;;;;;5086473;28;20079;-67
2022/07/30 02:49:34;;;;;;;11.73;2.83;;;35.90;72.70;;;;;;5071500;28;20020;-67
2022/07/30 02:52:02;;;;;;;11.73;2.28;;;36.30;38.30;;;;;;5055375;28;20095;-68
2022/07/30 02:54:30;;;;;;;14.85;2.40;;;36.50;54.20;;;;;;5086403;28;20222;-66
2022/07/30 02:56:58;;;;;;;9.25;2.42;;;36.20;52.40;;;;;;5091351;28;20096;-68
2022/07/30 02:59:27;;;;;;;14.05;2.35;;;35.70;46.30;;;;;;5071011;28;20397;-67
2022/07/30 03:01:54;;;;;;;15.02;2.75;;;35.90;40.70;;;;;;5085334;28;20536;-66
2022/07/30 03:04:21;;;;;;;13.50;3.30;;;36.10;41.10;;;;;;5087965;28;20477;-67
2022/07/30 03:06:48;;;;;;;15.77;3.35;;;36.10;37.40;;;;;;5086927;28;20080;-67
2022/07/30 03:09:17;;;;;;;13.98;2.97;;;35.60;38.30;;;;;;5070237;28;20073;-67
2022/07/30 03:11:43;;;;;;;11.95;2.67;;;;;;;;;;5087162;28;20409;-68
2022/07/30 03:14:10;;;;;;;12.88;2.40;;;35.90;70.60;;;;;;5086094;28;20037;-62
2022/07/30 03:16:40;;;;;;;10.25;2.58;;;36.20;68.60;;;;;;5086740;28;20567;-63
2022/07/30 03:19:09;;;;;;;15.88;3.35;;;36.70;37.40;;;;;;5086851;28;20525;-62
2022/07/30 03:21:40;;;;;;;11.05;2.80;;;36.90;63.60;;;;;;5070786;28;20124;-62
2022/07/30 03:24:08;;;;;;;22.83;2.95;;;36.60;65.40;;;;;;5087026;28;20043;-63
2022/07/30 03:26:38;;;;;;;13.68;3.40;;;36.20;52.70;;;;;;5085490;28;20027;-62
2022/07/30 03:29:42;;;;;;;11.18;2.83;;;36.20;67.00;;;;;;5070246;28;20528;-62
2022/07/30 03:32:09;;;;;;;15.40;3.17;;;36.90;68.10;;;;;;5084549;28;20024;-64
2022/07/30 03:34:36;;;;;;;15.32;3.35;;;36.50;39.50;;;;;;5084805;28;20037;-63
2022/07/30 03:37:04;;;;;;;26.58;3.65;;;36.20;70.00;;;;;;5084042;28;20066;-62
2022/07/30 03:39:35;;;;;;;23.58;4.18;;;36.30;40.00;;;;;;5083404;28;20032;-63
2022/07/30 03:42:02;;;;;;;31.92;3.90;;;36.20;41.20;;;;;;5075275;28;20027;-63
2022/07/30 03:44:30;;;;;;;24.27;4.00;;;36.10;41.10;;;;;;5074668;28;20603;-62
2022/07/30 03:46:58;;;;;;;24.35;3.20;;;36.20;66.00;;;;;;5076058;28;20066;-63
2022/07/30 03:49:25;;;;;;;22.80;3.55;;;36.10;41.00;;;;;;5092465;28;20063;-64
2022/07/30 03:51:53;;;;;;;22.65;3.70;;;36.10;68.60;;;;;;5092966;28;20026;-62
2022/07/30 03:54:20;;;;;;;35.45;4.20;;;36.00;65.10;;;;;;5074151;28;20553;-62
2022/07/30 03:56:47;;;;;;;38.28;4.80;;;35.90;72.10;;;;;;5089842;28;20474;-64
2022/07/30 03:59:15;;;;;;;29.73;4.50;;;35.70;65.60;;;;;;5071956;28;20056;-62
2022/07/30 04:01:41;;;;;;;21.10;3.90;;;35.90;66.60;;;;;;5089919;28;20033;-63
2022/07/30 04:04:09;;;;;;;23.65;4.25;;;36.00;47.60;;;;;;5072514;28;20071;-62
2022/07/30 04:06:39;;;;;;;20.42;3.95;;;36.00;71.00;;;;;;5091028;28;20138;-62
2022/07/30 04:09:11;;;;;;;26.63;3.78;;;35.60;41.60;;;;;;5088175;28;20081;-64
2022/07/30 04:11:38;;;;;;;21.77;3.55;;;35.70;53.90;;;;;;5073656;28;20050;-61
2022/07/30 04:14:05;;;;;;;16.90;2.97;;;35.60;45.20;;;;;;5089764;28;20020;-62
2022/07/30 04:16:48;;;;;;;18.75;2.97;;;35.50;40.50;;;;;;5092427;28;20040;-62
2022/07/30 04:19:24;;;;;;;17.27;3.17;;;35.40;68.60;;;;;;5089731;28;20122;-61
2022/07/30 04:21:53;;;;;;;23.77;3.90;;;35.20;63.20;;;;;;5089080;28;20041;-64
2022/07/30 04:24:20;;;;;;;34.70;4.57;;;35.20;65.50;;;;;;5088622;28;20039;-61
2022/07/30 04:26:48;;;;;;;37.70;4.07;;;34.70;70.60;;;;;;5089802;28;20051;-61
2022/07/30 04:29:16;;;;;;;25.63;3.47;;;35.10;43.40;;;;;;5073201;28;20024;-63
2022/07/30 04:31:42;;;;;;;31.48;4.10;;;;;;;;;;5090097;28;20028;-63
2022/07/30 04:34:14;;;;;;;24.08;3.40;;;35.10;40.50;;;;;;5089469;28;20604;-62
2022/07/30 04:36:41;;;;;;;33.28;3.55;;;35.30;73.60;;;;;;5089269;28;20024;-62
2022/07/30 04:39:08;;;;;;;27.67;3.58;;;34.70;49.70;;;;;;5086540;28;20032;-62
2022/07/30 04:41:35;;;;;;;25.50;3.95;;;35.10;39.60;;;;;;5092081;28;20432;-63
2022/07/30 04:44:01;;;;;;;36.85;3.75;;;;;;;;;;5073001;28;20024;-64
2022/07/30 04:46:28;;;;;;;20.08;2.72;;;34.80;73.90;;;;;;5089017;28;20115;-63
2022/07/30 04:48:54;;;;;;;24.80;3.45;;;;;;;;;;5093562;28;20036;-62
2022/07/30 04:51:34;;;;;;;27.77;3.83;;;34.70;42.00;;;;;;5089617;28;20032;-62
2022/07/30 04:54:04;;;;;;;20.02;3.67;;;34.60;45.50;;;;;;5090645;28;20035;-63
2022/07/30 04:56:33;;;;;;;18.52;2.88;;;34.60;47.00;;;;;;5072682;28;20036;-62
2022/07/30 04:59:00;;;;;;;20.30;3.50;;;;;;;;;;5089789;28;20458;-64
2022/07/30 05:01:33;;;;;;;26.95;3.53;;;34.30;60.20;;;;;;5072629;28;20020;-63
2022/07/30 05:04:01;;;;;;;22.75;3.13;;;34.50;49.40;;;;;;5089592;28;20023;-63
2022/07/30 05:06:29;;;;;;;17.83;3.05;;;34.40;50.90;;;;;;5088597;28;20413;-60
2022/07/30 05:08:56;;;;;;;19.15;3.65;;;34.30;47.30;;;;;;5090230;28;20072;-62
2022/07/30 05:11:23;;;;;;;25.60;3.75;;;;;;;;;;5088006;28;20172;-62
2022/07/30 05:13:49;;;;;;;25.38;4.00;;;34.20;79.60;;;;;;5087507;28;20090;-62
2022/07/30 05:16:16;;;;;;;22.67;2.88;;;34.10;47.20;;;;;;5088349;28;20077;-61
2022/07/30 05:18:44;;;;;;;30.33;3.42;;;34.10;47.20;;;;;;5088667;28;20068;-63
2022/07/30 05:21:10;;;;;;;17.65;3.00;;;33.70;78.00;;;;;;5088049;28;20513;-62
2022/07/30 05:23:37;;;;;;;17.23;3.35;;;34.00;76.10;;;;;;5086676;28;20051;-61
2022/07/30 05:26:03;;;;;;;19.92;3.25;;;34.00;51.90;;;;;;5087626;28;20084;-64
2022/07/30 05:28:30;;;;;;;25.63;4.05;;;33.80;77.60;;;;;;5087751;28;20115;-60
2022/07/30 05:30:56;;;;;;;21.73;3.30;;;33.80;68.70;;;;;;5089660;28;20024;-62
2022/07/30 05:33:23;;;;;;;24.13;3.55;;;33.80;48.00;;;;;;5087667;28;20519;-61
2022/07/30 05:35:49;;;;;;;28.13;3.72;;;33.70;70.20;;;;;;5070994;28;20545;-62
2022/07/30 05:38:17;;;;;;;17.10;3.15;;;33.90;69.10;;;;;;5088528;28;20051;-62
2022/07/30 05:40:45;;;;;;;18.08;2.97;;;33.80;60.60;;;;;;5086829;28;20546;-62
2022/07/30 05:43:12;;;;;;;13.60;3.28;;;33.70;46.30;;;;;;5087144;28;20054;-61
2022/07/30 05:45:38;;;;;;;23.38;2.78;;;33.70;46.80;;;;;;5071133;28;20105;-62
2022/07/30 05:48:05;;;;;;;15.60;3.20;;;33.70;46.40;;;;;;5092395;28;20067;-63
2022/07/30 05:50:31;;;;;;;19.98;3.03;;;33.70;46.40;;;;;;5090917;28;20076;-62
2022/07/30 05:52:57;;;;;;;24.08;3.28;;;33.70;46.50;;;;;;5088256;28;20071;-61
2022/07/30 05:55:24;;;;;;;16.15;3.22;;;33.60;46.40;;;;;;5069242;28;20107;-60
2022/07/30 05:57:50;;;;;;;17.23;3.10;;;33.60;46.20;;;;;;5089302;28;20159;-62
2022/07/30 06:00:17;;;;;;;17.52;2.95;;;33.50;46.30;;;;;;5087158;28;20433;-63
2022/07/30 06:02:43;;;;;;;28.45;3.42;;;33.50;45.80;;;;;;5088671;28;20083;-63
2022/07/30 06:05:10;;;;;;;15.20;2.40;;;33.50;44.50;;;;;;5087128;28;20089;-62
2022/07/30 06:07:36;;;;;;;18.55;2.80;;;33.50;43.90;;;;;;5087073;28;20118;-63
2022/07/30 06:10:03;;;;;;;12.65;2.55;;;33.60;43.80;;;;;;5087612;28;20068;-62
2022/07/30 06:12:30;;;;;;;23.63;3.03;;;33.60;43.60;;;;;;5072612;28;20081;-62
2022/07/30 06:14:57;;;;;;;10.48;2.67;;;33.60;44.00;;;;;;5086324;28;20084;-62
2022/07/30 06:17:24;;;;;;;15.25;2.85;;;33.50;44.00;;;;;;5086128;28;20061;-64
2022/07/30 06:19:52;;;;;;;15.73;2.97;;;33.70;64.00;;;;;;5067951;28;20092;-64
2022/07/30 06:22:19;;;;;;;15.98;2.53;;;33.50;45.90;;;;;;5084997;28;20079;-63
2022/07/30 06:24:45;;;;;;;7.88;2.30;;;33.40;60.10;;;;;;5087286;28;20204;-65
2022/07/30 06:27:11;;;;;;;13.63;2.45;;;33.40;44.70;;;;;;5083247;28;20079;-63
2022/07/30 06:29:38;;;;;;;8.70;1.90;;;33.40;44.80;;;;;;5085938;28;20422;-63
2022/07/30 06:32:04;;;;;;;9.23;2.13;;;33.40;44.90;;;;;;5069484;28;20213;-64
2022/07/30 06:34:31;;;;;;;11.38;2.22;;;33.40;45.40;;;;;;5084959;28;20107;-66
2022/07/30 06:36:57;;;;;;;12.20;2.35;;;33.30;45.60;;;;;;5083608;28;20089;-62
2022/07/30 06:39:23;;;;;;;9.43;2.08;;;33.30;45.70;;;;;;5084563;28;20100;-63
2022/07/30 06:41:50;;;;;;;12.27;2.40;;;33.30;45.80;;;;;;5080244;28;20088;-62
2022/07/30 06:44:16;;;;;;;19.25;2.47;;;33.20;46.40;;;;;;5084848;28;20083;-62
2022/07/30 06:46:43;;;;;;;10.75;2.40;;;33.20;46.60;;;;;;5083261;28;20129;-65
2022/07/30 06:49:09;;;;;;;9.90;2.17;;;33.10;46.70;;;;;;5085851;28;20084;-62
2022/07/30 06:51:35;;;;;;;10.48;1.90;;;33.10;47.00;;;;;;5085418;28;20072;-63
2022/07/30 06:54:04;;;;;;;9.15;2.17;;;33.10;47.40;;;;;;5087694;28;20187;-63
2022/07/30 06:56:30;;;;;;;10.48;2.08;;;33.10;47.20;;;;;;5069687;28;20116;-63
2022/07/30 06:58:57;;;;;;;12.43;2.60;;;33.10;47.30;;;;;;5070132;28;20121;-63
2022/07/30 07:01:23;;;;;;;8.38;2.03;;;33.00;47.60;;;;;;5086090;28;20068;-62
2022/07/30 07:03:50;;;;;;;14.60;2.20;;;33.00;47.80;;;;;;5072436;28;20073;-64
2022/07/30 07:06:16;;;;;;;11.43;2.45;;;33.00;47.90;;;;;;5085262;28;20214;-62
2022/07/30 07:08:42;;;;;;;12.98;2.45;;;33.00;48.10;;;;;;5085923;28;20084;-63
2022/07/30 07:11:09;;;;;;;12.30;2.10;;;32.90;48.30;;;;;;5083685;28;20087;-64
2022/07/30 07:13:36;;;;;;;8.52;2.25;;;32.90;48.70;;;;;;5087172;28;20173;-64
2022/07/30 07:16:03;;;;;;;10.77;2.33;;;32.90;49.00;;;;;;5085234;28;20095;-62
2022/07/30 07:18:29;;;;;;;11.20;2.40;;;32.80;49.20;;;;;;5090053;28;20073;-64
2022/07/30 07:20:55;;;;;;;8.25;2.00;;;32.80;49.30;;;;;;5090862;28;20101;-64
2022/07/30 07:23:22;;;;;;;9.13;2.13;;;32.80;49.40;;;;;;5089554;28;20084;-63
2022/07/30 07:25:49;;;;;;;13.40;2.97;;;32.90;49.80;;;;;;5089306;28;20108;-63
2022/07/30 07:28:15;;;;;;;9.25;2.50;;;32.80;49.80;;;;;;5089158;28;20187;-62
2022/07/30 07:30:42;;;;;;;15.68;2.75;;;32.80;50.40;;;;;;5088028;28;20085;-63
2022/07/30 07:33:09;;;;;;;8.32;2.13;;;32.80;50.60;;;;;;5088822;28;20088;-64
2022/07/30 07:35:36;;;;;;;18.85;2.83;;;32.80;50.50;;;;;;5087142;28;20089;-63
2022/07/30 07:38:02;;;;;;;19.23;2.80;;;32.80;50.60;;;;;;5089071;28;20076;-63
2022/07/30 07:40:28;;;;;;;10.77;2.33;;;32.60;50.10;;;;;;5088752;28;20079;-61
2022/07/30 07:42:55;;;;;;;7.05;1.83;;;32.70;50.20;;;;;;5089419;28;20092;-65
2022/07/30 07:45:21;;;;;;;11.25;2.45;;;32.60;50.10;;;;;;5085725;28;20088;-61
2022/07/30 07:47:49;;;;;;;14.85;2.40;;;32.60;50.20;;;;;;5086966;28;20069;-62
2022/07/30 07:50:17;;;;;;;7.90;2.45;;;32.60;49.90;;;;;;5092205;28;20077;-65
2022/07/30 07:52:43;;;;;;;14.43;2.58;;;32.50;50.00;;;;;;5089050;28;20119;-62
2022/07/30 07:55:10;;;;;;;17.25;3.13;;;32.50;50.00;;;;;;5071940;28;20112;-61
2022/07/30 07:57:41;;;;;;;13.50;2.53;;;32.40;50.20;;;;;;5089863;28;20122;-63
2022/07/30 08:00:13;;;;;;;10.13;2.40;;;32.40;49.90;;;;;;5089364;28;20092;-64
2022/07/30 08:02:40;;;;;;;6.32;1.80;;;32.40;49.50;;;;;;5088399;28;20155;-62
2022/07/30 08:05:09;;;;;;;8.73;2.33;;;32.40;49.70;;;;;;5088817;28;20506;-64
2022/07/30 08:07:35;;;;;;;13.55;2.40;;;32.30;49.80;;;;;;5071746;28;20073;-64
2022/07/30 08:10:02;;;;;;;12.80;2.13;;;32.30;50.00;;;;;;5087843;28;20089;-64
2022/07/30 08:12:30;;;;;;;9.90;2.20;;;32.20;49.80;;;;;;5090393;28;20084;-65
2022/07/30 08:15:00;;;;;;;7.97;2.10;;;32.20;50.00;;;;;;5088733;28;20094;-64
2022/07/30 08:17:26;;;;;;;9.93;2.47;;;32.10;49.90;;;;;;5091681;28;20060;-64
2022/07/30 08:19:53;;;;;;;6.65;2.05;;;32.10;50.00;;;;;;5088525;28;21128;-63
2022/07/30 08:22:19;;;;;;;11.35;2.30;;;32.10;49.90;;;;;;5090467;28;20064;-61
2022/07/30 08:24:45;;;;;;;14.25;2.75;;;32.10;50.40;;;;;;5088861;28;20104;-63
2022/07/30 08:27:12;;;;;;;16.48;2.15;;;32.00;50.80;;;;;;5088829;28;20085;-61
2022/07/30 08:29:38;;;;;;;8.60;2.40;;;32.00;51.40;;;;;;5089586;28;20156;-63
2022/07/30 08:32:05;;;;;;;11.52;2.15;;;32.00;51.90;;;;;;5073308;28;20595;-63
2022/07/30 08:34:31;;;;;;;9.55;2.55;;;32.00;52.00;;;;;;5086745;28;20088;-64
2022/07/30 08:36:58;;;;;;;14.38;2.72;;;31.90;52.60;;;;;;5088318;28;20069;-64
2022/07/30 08:39:24;;;;;;;8.35;2.17;;;31.80;52.50;;;;;;5088557;28;20089;-62
2022/07/30 08:41:51;;;;;;;13.73;3.13;;;31.90;52.40;;;;;;5087959;28;20085;-63
2022/07/30 08:44:20;;;;;;;11.75;2.58;;;31.80;53.10;;;;;;5090211;28;20088;-64
2022/07/30 08:46:47;;;;;;;8.05;2.80;;;31.70;53.80;;;;;;5087037;28;20458;-62
2022/07/30 08:49:15;;;;;;;11.57;3.45;;;31.70;54.60;;;;;;5086746;28;20894;-63
2022/07/30 08:51:42;;;;;;;7.47;2.20;;;31.60;55.10;;;;;;5089618;28;20471;-64
2022/07/30 08:54:09;;;;;;;8.57;2.47;;;31.60;55.70;;;;;;5089668;28;20092;-63
2022/07/30 08:56:35;;;;;;;9.52;2.65;;;31.70;56.30;;;;;;5085366;28;20446;-64
2022/07/30 08:59:02;;;;;;;14.35;2.65;;;31.60;56.80;;;;;;5086858;28;20542;-62
2022/07/30 09:01:29;;;;;;;11.43;2.67;;;31.60;57.30;;;;;;5090557;28;20072;-63
2022/07/30 09:03:55;;;;;;;11.45;2.20;;;31.50;57.70;;;;;;5087250;28;20157;-63
2022/07/30 09:06:22;;;;;;;11.85;2.75;;;31.50;58.10;;;;;;5087914;28;20078;-63
2022/07/30 09:08:48;;;;;;;17.33;3.40;;;31.50;58.80;;;;;;5088584;28;20072;-62
2022/07/30 09:11:15;;;;;;;9.93;2.80;;;31.50;59.50;;;;;;5089949;28;20542;-63
2022/07/30 09:13:43;;;;;;;13.90;3.30;;;31.40;59.90;;;;;;5089050;28;20099;-66
2022/07/30 09:16:25;;;;;;;12.63;2.70;;;31.40;60.60;;;;;;5086329;28;20100;-63
2022/07/30 09:18:54;;;;;;;11.20;3.05;;;31.30;61.20;;;;;;5071894;28;20084;-64
2022/07/30 09:21:25;;;;;;;15.30;3.38;;;31.20;61.80;;;;;;5084483;28;20098;-63
2022/07/30 09:24:02;;;;;;;11.68;2.78;;;31.30;62.40;;;;;;5085048;28;20073;-62
2022/07/30 09:26:31;;;;;;;13.57;3.10;;;31.20;63.20;;;;;;5087825;28;20438;-62
2022/07/30 09:29:18;;;;;;;8.35;2.58;;;31.20;64.80;;;;;;5087545;28;20538;-62
2022/07/30 09:31:57;;;;;;;7.80;2.25;;;31.20;65.00;;;;;;5056079;28;20188;-62
2022/07/30 09:34:25;;;;;;;8.77;2.15;;;31.10;65.50;;;;;;5085783;28;20103;-63
2022/07/30 09:36:52;;;;;;;10.98;2.47;;;31.10;65.80;;;;;;5086858;28;20095;-63
2022/07/30 09:39:36;;;;;;;16.02;2.95;;;31.10;65.90;;;;;;5086665;28;20083;-62
2022/07/30 09:42:15;;;;;;;9.80;2.40;;;31.00;66.10;;;;;;5087311;28;20088;-62
2022/07/30 09:44:42;;;;;;;7.35;2.35;;;31.00;66.30;;;;;;5084493;28;20489;-63
2022/07/30 09:47:08;;;;;;;8.85;3.00;;;31.00;67.00;;;;;;5086368;28;20096;-64
2022/07/30 09:49:36;;;;;;;8.95;2.60;;;31.00;67.00;;;;;;5085306;28;20092;-62
2022/07/30 09:52:02;;;;;;;11.25;3.00;;;31.00;67.80;;;;;;5088391;28;20067;-62
2022/07/30 09:54:48;;;;;;;8.63;3.10;;;30.90;68.20;;;;;;5085321;28;20105;-63
2022/07/30 09:57:15;;;;;;;12.75;3.50;;;30.90;69.20;;;;;;5085891;28;20081;-62
2022/07/30 09:59:41;;;;;;;14.10;3.25;;;30.90;69.40;;;;;;5081438;28;20127;-63
2022/07/30 10:02:08;;;;;;;14.18;3.38;;;30.90;70.60;;;;;;5084849;28;20526;-63
2022/07/30 10:04:35;;;;;;;9.20;3.45;;;30.90;70.20;;;;;;5085525;28;20143;-61
2022/07/30 10:07:01;;;;;;;9.00;3.10;;;30.90;71.10;;;;;;5086684;28;20491;-62
2022/07/30 10:09:30;;;;;;;12.73;3.90;;;30.80;71.40;;;;;;5086231;28;20104;-61
2022/07/30 10:11:59;;;;;;;15.27;4.05;;;30.90;71.50;;;;;;5088445;28;20091;-63
2022/07/30 10:14:29;;;;;;;10.98;3.63;;;30.90;71.70;;;;;;5053873;28;20160;-63
2022/07/30 10:16:57;;;;;;;9.68;2.78;;;30.90;71.30;;;;;;5087824;28;20136;-64
2022/07/30 10:19:23;;;;;;;10.52;3.38;;;30.80;71.90;;;;;;5087865;28;20569;-63
2022/07/30 10:21:50;;;;;;;13.15;3.30;;;30.90;72.00;;;;;;5091159;28;20102;-64
2022/07/30 10:24:17;;;;;;;9.95;3.05;;;30.90;72.30;;;;;;5085192;28;20146;-63
2022/07/30 10:26:46;;;;;;;13.40;3.28;;;30.80;72.80;;;;;;5086612;28;20142;-62
2022/07/30 10:29:16;;;;;;;13.95;3.13;;;30.80;73.40;;;;;;5071655;28;20538;-62
2022/07/30 10:31:47;;;;;;;10.93;3.45;;;30.80;73.60;;;;;;5086559;28;20092;-64
2022/07/30 10:34:16;;;;;;;11.23;3.00;;;30.80;74.00;;;;;;5071379;28;20407;-63
2022/07/30 10:37:10;;;;;;;11.77;3.20;;;30.80;74.20;;;;;;5085616;28;20526;-64
2022/07/30 10:39:49;;;;;;;14.48;3.70;;;30.70;74.60;;;;;;5084589;28;20081;-64
2022/07/30 10:42:28;;;;;;;11.43;3.30;;;30.70;75.10;;;;;;5086130;28;20534;-63
2022/07/30 10:45:07;;;;;;;11.75;3.45;;;30.70;75.80;;;;;;5086600;28;20100;-65
2022/07/30 10:47:34;;;;;;;14.18;3.25;;;30.60;76.40;;;;;;5088455;28;20082;-64
2022/07/30 10:50:06;;;;;;;10.30;3.15;;;30.60;76.80;;;;;;5085177;28;20151;-64
2022/07/30 10:52:52;;;;;;;12.07;3.35;;;30.60;77.50;;;;;;5087563;28;20707;-64
2022/07/30 10:55:21;;;;;;;13.57;3.42;;;30.50;78.10;;;;;;5087256;28;20128;-63
2022/07/30 10:58:11;;;;;;;10.32;2.97;;;30.50;78.70;;;;;;5088174;28;20084;-62
2022/07/30 11:00:52;;;;;;;16.50;3.70;;;30.50;79.40;;;;;;5083237;28;20068;-63
2022/07/30 11:03:22;;;;;;;12.35;3.50;;;30.50;79.90;;;;;;5087373;28;20210;-64
2022/07/30 11:06:09;;;;;;;13.25;3.45;;;30.50;80.80;;;;;;5085231;28;20115;-64
2022/07/30 11:08:38;;;;;;;13.70;3.65;;;30.40;81.40;;;;;;5070714;28;20080;-63
2022/07/30 11:11:29;;;;;;;11.27;3.50;;;30.40;82.50;;;;;;5086578;28;20073;-65
2022/07/30 11:13:58;;;;;;;14.68;3.75;;;30.30;83.20;;;;;;5086223;28;20069;-61
2022/07/30 11:16:44;;;;;;;13.80;3.35;;;30.30;83.90;;;;;;5086803;28;20073;-66
2022/07/30 11:19:16;;;;;;;15.23;3.75;;;30.30;84.50;;;;;;5086507;28;20079;-65
2022/07/30 11:21:44;;;;;;;15.23;3.97;;;30.30;84.90;;;;;;5088602;28;20077;-63
2022/07/30 11:24:45;;;;;;;15.73;3.53;;;30.30;85.40;;;;;;5086072;28;20068;-64
2022/07/30 11:27:35;;;;;;;12.82;3.30;;;30.30;85.70;;;;;;5084817;28;20170;-63
2022/07/30 11:30:25;;;;;;;16.63;3.60;;;30.30;86.20;;;;;;5085811;28;20500;-63
2022/07/30 11:32:54;;;;;;;20.80;4.05;;;30.30;86.40;;;;;;5083706;28;20163;-62
2022/07/30 11:35:20;;;;;;;13.18;3.78;;;30.20;87.20;;;;;;5084074;28;20115;-63
2022/07/30 11:38:04;;;;;;;23.63;4.90;;;30.20;88.10;;;;;;5085938;28;20065;-63
2022/07/30 11:40:47;;;;;;;13.57;3.78;;;30.20;88.80;;;;;;5085269;28;20494;-64
2022/07/30 11:43:40;;;;;;;19.15;4.47;;;30.20;89.40;;;;;;5084296;28;20134;-65
2022/07/30 11:46:14;;;;;;;20.10;5.40;;;30.20;90.00;;;;;;5084093;28;20112;-61
2022/07/30 11:48:43;;;;;;;20.90;4.65;;;30.10;90.30;;;;;;5085745;28;20144;-64
2022/07/30 11:51:09;;;;;;;20.52;4.85;;;30.10;90.50;;;;;;5087158;28;20218;-65
2022/07/30 11:53:39;;;;;;;16.85;4.72;;;30.10;90.70;;;;;;5084555;28;20219;-61
2022/07/30 11:56:06;;;;;;;21.30;4.88;;;30.00;91.00;;;;;;5082991;28;20594;-61
2022/07/30 11:58:36;;;;;;;18.55;4.97;;;30.00;91.20;;;;;;5085233;28;20092;-66
2022/07/30 12:01:04;;;;;;;14.52;4.75;;;30.00;91.40;;;;;;5064968;28;20418;-62
2022/07/30 12:03:31;;;;;;;19.77;5.75;;;30.00;91.50;;;;;;5083585;28;20142;-63
2022/07/30 12:06:08;;;;;;;21.95;5.70;;;30.00;91.90;;;;;;5090005;28;20088;-61
2022/07/30 12:08:45;;;;;;;17.35;4.93;;;30.00;92.10;;;;;;5088853;28;20082;-64
2022/07/30 12:11:12;;;;;;;19.60;4.80;;;30.00;92.50;;;;;;5088020;28;20072;-62
2022/07/30 12:13:40;;;;;;;20.80;5.63;;;30.00;92.80;;;;;;5086026;28;20068;-62
2022/07/30 12:16:08;;;;;;;23.90;5.60;;;30.00;92.90;;;;;;5072351;28;20167;-62
2022/07/30 12:18:35;;;;;;;23.55;5.90;;;30.00;93.30;;;;;;5089415;28;20538;-64
2022/07/30 12:21:11;;;;;;;22.85;5.28;;;29.90;93.50;;;;;;5088780;28;20080;-62
2022/07/30 12:23:37;;;;;;;;;;;29.90;93.80;;;;;;5073230;28;20594;-63
2022/07/30 12:26:05;;;;;;;17.02;4.85;;;29.90;94.10;;;;;;5089102;28;19980;-63
2022/07/30 12:28:33;;;;;;;17.08;3.88;;;29.90;94.40;;;;;;5089400;28;20080;-65
2022/07/30 12:31:03;;;;;;;12.40;3.75;;;30.00;94.60;;;;;;5087565;28;20065;-65
2022/07/30 12:33:30;;;;;;;19.80;4.82;;;29.90;94.90;;;;;;5087430;28;20084;-63
2022/07/30 12:36:00;;;;;;;20.27;5.32;;;29.90;95.10;;;;;;5087547;28;20105;-63
2022/07/30 12:38:27;;;;;;;14.57;3.80;;;29.90;95.40;;;;;;5086104;28;20102;-63
2022/07/30 12:41:04;;;;;;;13.35;3.78;;;29.90;95.40;;;;;;5087909;28;20047;-63
2022/07/30 12:43:43;;;;;;;19.75;4.35;;;30.10;96.30;;;;;;5088550;28;20083;-63
2022/07/30 12:46:11;;;;;;;19.73;4.28;;;29.50;99.90;;;;;;5087259;28;20082;-62
2022/07/30 12:48:47;;;;;;;19.52;4.85;;;29.90;96.00;;;;;;5085159;28;20072;-62
2022/07/30 12:51:13;;;;;;;20.63;4.83;;;30.00;99.90;;;;;;5073869;28;20099;-63
2022/07/30 12:53:40;;;;;;;20.92;5.38;;;29.90;99.90;;;;;;5071487;28;20123;-63
2022/07/30 12:56:11;;;;;;;27.08;4.70;;;29.90;99.90;;;;;;5090214;28;20122;-62
2022/07/30 12:58:38;;;;;;;18.90;4.43;;;29.90;96.50;;;;;;5086709;28;20113;-63
2022/07/30 13:01:05;;;;;;;18.85;4.28;;;29.90;99.90;;;;;;5072182;28;20068;-63